Time;durP1;ratioP1;P1;durP2;ratioP2;P2;SDS_P1;SDS_P2;PMS_P1;PMS_P2;Temp;Humidity;BMP_temperature;BMP_pressure;BME280_temperature;BME280_humidity;BME280_pressure;Samples;Min_cycle;Max_cycle;Signal;HPM_P1;HPM_P2
2021/07/10 00:02:00;;;;;;;16.25;11.05;;;11.50;94.60;;;;;;4997715;28;20033;-86
2021/07/10 00:04:29;;;;;;;14.18;10.20;;;11.50;95.10;;;;;;4998055;28;20057;-86
2021/07/10 00:06:58;;;;;;;15.25;9.80;;;11.50;95.30;;;;;;4999119;28;20034;-86
2021/07/10 00:09:28;;;;;;;16.15;10.52;;;11.40;95.60;;;;;;4998888;28;20116;-87
2021/07/10 00:11:54;;;;;;;14.38;10.75;;;11.30;95.30;;;;;;5016378;28;20040;-87
2021/07/10 00:14:20;;;;;;;15.07;10.57;;;11.30;95.30;;;;;;5015706;28;20026;-86
2021/07/10 00:16:46;;;;;;;19.85;12.10;;;11.20;95.30;;;;;;5011373;28;20026;-87
2021/07/10 00:19:12;;;;;;;15.60;10.43;;;11.20;95.40;;;;;;4998142;28;20437;-86
2021/07/10 00:21:38;;;;;;;13.43;10.73;;;11.20;94.30;;;;;;5016016;28;20054;-85
2021/07/10 00:24:09;;;;;;;15.68;11.60;;;11.30;95.10;;;;;;5015544;28;20033;-86
2021/07/10 00:26:35;;;;;;;13.50;9.57;;;11.20;95.60;;;;;;4998892;28;20388;-86
2021/07/10 00:29:01;;;;;;;15.02;10.80;;;11.10;94.70;;;;;;4998276;28;20037;-86
2021/07/10 00:31:26;;;;;;;13.02;10.52;;;11.20;94.70;;;;;;4997585;28;20022;-86
2021/07/10 00:33:52;;;;;;;16.77;11.40;;;11.30;94.20;;;;;;4998138;28;20037;-86
2021/07/10 00:36:18;;;;;;;14.20;10.95;;;11.40;93.90;;;;;;4998552;28;20041;-86
2021/07/10 00:38:44;;;;;;;14.20;10.65;;;11.50;94.70;;;;;;4998384;28;20030;-85
2021/07/10 00:41:09;;;;;;;13.25;10.63;;;11.50;94.60;;;;;;4997897;28;20054;-85
2021/07/10 00:43:36;;;;;;;13.60;10.13;;;11.50;94.70;;;;;;5015715;28;20029;-86
2021/07/10 00:46:02;;;;;;;12.80;10.00;;;11.50;94.90;;;;;;4997183;28;20037;-86
2021/07/10 00:48:29;;;;;;;14.10;9.10;;;11.40;95.00;;;;;;4979144;28;20137;-87
2021/07/10 00:50:55;;;;;;;11.65;9.15;;;11.40;94.80;;;;;;4996373;28;20033;-87
2021/07/10 00:53:21;;;;;;;16.50;10.93;;;11.40;94.90;;;;;;4998209;28;20041;-87
2021/07/10 00:55:46;;;;;;;12.88;9.70;;;11.40;95.00;;;;;;4998245;28;20030;-87
2021/07/10 00:58:13;;;;;;;16.38;10.98;;;11.40;95.00;;;;;;5015717;28;20422;-87
2021/07/10 01:00:40;;;;;;;14.77;11.25;;;11.30;95.20;;;;;;4996799;28;20030;-87
2021/07/10 01:03:06;;;;;;;15.88;10.65;;;11.40;94.30;;;;;;5015713;28;20021;-85
2021/07/10 01:05:35;;;;;;;16.55;10.40;;;11.50;95.20;;;;;;4998291;28;20029;-86
2021/07/10 01:08:01;;;;;;;16.55;11.55;;;11.30;95.50;;;;;;5015239;28;20422;-87
2021/07/10 01:10:27;;;;;;;16.75;11.70;;;11.30;94.70;;;;;;4998439;28;20117;-86
2021/07/10 01:12:56;;;;;;;15.35;12.32;;;11.40;94.40;;;;;;4995314;28;20104;-85
2021/07/10 01:15:25;;;;;;;18.75;13.18;;;11.60;94.10;;;;;;5000575;28;20058;-86
2021/07/10 01:17:53;;;;;;;15.90;12.15;;;11.70;94.30;;;;;;4999841;28;20485;-86
2021/07/10 01:20:21;;;;;;;16.90;12.70;;;11.70;94.90;;;;;;5014765;28;20109;-86
2021/07/10 01:22:49;;;;;;;18.58;14.07;;;11.60;95.10;;;;;;5000904;28;20046;-85
2021/07/10 01:25:19;;;;;;;17.88;12.75;;;11.60;94.50;;;;;;4997768;28;20431;-86
2021/07/10 01:27:45;;;;;;;17.17;12.55;;;11.70;94.50;;;;;;5008114;28;20033;-86
2021/07/10 01:30:18;;;;;;;18.65;13.27;;;11.80;95.00;;;;;;4999986;28;20034;-86
2021/07/10 01:32:45;;;;;;;18.17;12.10;;;11.70;94.50;;;;;;5015789;28;20021;-86
2021/07/10 01:35:12;;;;;;;17.08;12.48;;;11.70;95.20;;;;;;5019156;28;20481;-86
2021/07/10 01:37:43;;;;;;;18.40;13.82;;;11.60;94.90;;;;;;5018910;28;20057;-86
2021/07/10 01:40:11;;;;;;;18.35;12.48;;;11.80;95.00;;;;;;5011368;28;20049;-86
2021/07/10 01:42:37;;;;;;;18.58;12.52;;;11.70;95.60;;;;;;5000582;28;20026;-86
2021/07/10 01:45:03;;;;;;;14.65;12.02;;;11.60;95.80;;;;;;4999944;28;20037;-86
2021/07/10 01:47:29;;;;;;;15.98;11.52;;;11.50;95.60;;;;;;5001270;28;20068;-86
2021/07/10 01:49:55;;;;;;;16.13;11.75;;;11.50;95.80;;;;;;5018651;28;20053;-86
2021/07/10 01:52:21;;;;;;;17.25;12.02;;;11.50;95.00;;;;;;5018190;28;20034;-86
2021/07/10 01:54:46;;;;;;;16.45;11.52;;;11.50;95.40;;;;;;5018644;28;20034;-86
2021/07/10 01:57:18;;;;;;;14.20;11.43;;;11.60;94.90;;;;;;5000623;28;20049;-86
2021/07/10 01:59:46;;;;;;;15.60;11.63;;;11.60;95.40;;;;;;5000429;28;20021;-86
2021/07/10 02:02:14;;;;;;;23.73;13.60;;;11.60;95.60;;;;;;4999842;28;20022;-86
2021/07/10 02:04:48;;;;;;;18.50;12.35;;;11.50;95.60;;;;;;5018320;28;20373;-85
2021/07/10 02:07:15;;;;;;;18.75;11.57;;;11.50;95.50;;;;;;5000764;28;20064;-86
2021/07/10 02:09:41;;;;;;;16.77;12.00;;;11.40;95.40;;;;;;5000960;28;20026;-86
2021/07/10 02:12:08;;;;;;;20.08;13.63;;;11.40;95.30;;;;;;5017062;28;20049;-86
2021/07/10 02:14:33;;;;;;;18.08;12.43;;;11.40;94.60;;;;;;5000247;28;20036;-85
2021/07/10 02:16:59;;;;;;;18.10;12.35;;;11.50;94.90;;;;;;4999298;28;20021;-86
2021/07/10 02:19:28;;;;;;;19.55;14.88;;;11.40;95.20;;;;;;5017672;28;20125;-86
2021/07/10 02:21:56;;;;;;;20.63;14.50;;;11.40;94.90;;;;;;4999600;28;20046;-86
2021/07/10 02:24:22;;;;;;;19.17;14.55;;;11.40;94.70;;;;;;5000342;28;20029;-86
2021/07/10 02:26:51;;;;;;;17.00;13.50;;;11.40;94.70;;;;;;5000671;28;20034;-86
2021/07/10 02:29:19;;;;;;;19.85;12.45;;;11.30;95.20;;;;;;5017359;28;20110;-86
2021/07/10 02:31:44;;;;;;;15.25;11.35;;;11.30;94.90;;;;;;5016565;28;20370;-86
2021/07/10 02:34:10;;;;;;;18.70;13.05;;;11.20;94.90;;;;;;5017725;28;20037;-86
2021/07/10 02:36:36;;;;;;;16.33;12.70;;;11.20;95.00;;;;;;5000656;28;20029;-86
2021/07/10 02:39:03;;;;;;;13.73;10.93;;;11.10;95.30;;;;;;5017635;28;20088;-86
2021/07/10 02:41:29;;;;;;;13.95;10.43;;;11.10;94.30;;;;;;4998755;28;20338;-86
2021/07/10 02:43:55;;;;;;;15.52;11.02;;;11.10;94.40;;;;;;4999718;28;20034;-85
2021/07/10 02:46:20;;;;;;;16.70;11.27;;;11.10;94.10;;;;;;4998282;28;20044;-86
2021/07/10 02:48:47;;;;;;;12.93;10.43;;;11.10;94.90;;;;;;4999711;28;20045;-86
2021/07/10 02:51:13;;;;;;;20.05;14.98;;;11.00;93.60;;;;;;5017828;28;20033;-85
2021/07/10 02:53:39;;;;;;;15.82;11.65;;;11.10;94.00;;;;;;5015306;28;20044;-85
2021/07/10 02:56:05;;;;;;;18.92;14.18;;;11.10;93.80;;;;;;4999470;28;20061;-85
2021/07/10 02:58:31;;;;;;;14.65;11.25;;;11.10;94.30;;;;;;4999485;28;20025;-86
2021/07/10 03:00:57;;;;;;;17.42;12.80;;;11.00;93.90;;;;;;5015602;28;20022;-86
2021/07/10 03:03:22;;;;;;;17.52;12.38;;;11.00;94.10;;;;;;5016915;28;20030;-84
2021/07/10 03:05:51;;;;;;;17.15;11.98;;;10.90;94.50;;;;;;4999619;28;20022;-85
2021/07/10 03:08:20;;;;;;;19.95;14.68;;;10.90;93.40;;;;;;5017045;28;20025;-85
2021/07/10 03:10:47;;;;;;;19.42;13.63;;;11.00;93.80;;;;;;5012876;28;20026;-86
2021/07/10 03:13:13;;;;;;;14.95;10.98;;;10.90;94.00;;;;;;4999912;28;20022;-86
2021/07/10 03:15:39;;;;;;;15.93;11.85;;;10.90;93.90;;;;;;5015547;28;20029;-86
2021/07/10 03:18:05;;;;;;;15.80;11.40;;;10.90;93.60;;;;;;4999357;28;20026;-85
2021/07/10 03:20:34;;;;;;;19.67;14.30;;;11.00;92.90;;;;;;4999312;28;20036;-84
2021/07/10 03:23:00;;;;;;;15.32;11.50;;;11.10;93.30;;;;;;5016488;28;20117;-85
2021/07/10 03:25:25;;;;;;;15.40;11.63;;;11.10;93.80;;;;;;5009880;28;20104;-85
2021/07/10 03:27:53;;;;;;;13.38;10.30;;;10.90;94.10;;;;;;5017365;28;20044;-85
2021/07/10 03:30:21;;;;;;;17.63;10.95;;;10.80;94.30;;;;;;4998048;28;20037;-85
2021/07/10 03:32:47;;;;;;;16.90;11.70;;;10.80;93.50;;;;;;4999252;28;20036;-85
2021/07/10 03:35:14;;;;;;;13.57;10.30;;;10.70;93.70;;;;;;5016211;28;20078;-85
2021/07/10 03:37:40;;;;;;;13.27;9.50;;;10.70;93.30;;;;;;4999117;28;20088;-85
2021/07/10 03:40:12;;;;;;;13.45;8.82;;;10.80;93.30;;;;;;4998702;28;20366;-84
2021/07/10 03:42:39;;;;;;;12.35;8.95;;;10.80;92.90;;;;;;5015819;28;20018;-84
2021/07/10 03:45:14;;;;;;;13.38;9.98;;;10.90;92.90;;;;;;4997942;28;20037;-86
2021/07/10 03:47:40;;;;;;;13.55;9.23;;;10.90;93.30;;;;;;4999038;28;20034;-86
2021/07/10 03:50:08;;;;;;;28.42;11.23;;;10.80;93.50;;;;;;5016076;28;20030;-85
2021/07/10 03:52:34;;;;;;;13.15;10.35;;;10.80;93.50;;;;;;4999022;28;20415;-85
2021/07/10 03:55:01;;;;;;;13.60;9.80;;;10.80;93.30;;;;;;5016047;28;20034;-85
2021/07/10 03:57:28;;;;;;;17.65;11.98;;;10.80;93.40;;;;;;5015626;28;20018;-85
2021/07/10 03:59:54;;;;;;;13.88;10.02;;;10.80;93.20;;;;;;4997671;28;20038;-84
2021/07/10 04:02:19;;;;;;;19.45;12.55;;;10.90;92.60;;;;;;4998356;28;20475;-85
2021/07/10 04:04:45;;;;;;;17.52;11.60;;;10.90;93.50;;;;;;5015528;28;20335;-85
2021/07/10 04:07:11;;;;;;;16.08;10.63;;;10.80;93.70;;;;;;5015909;28;20067;-85
2021/07/10 04:09:37;;;;;;;14.15;10.80;;;10.80;93.30;;;;;;5016088;28;20029;-84
2021/07/10 04:12:03;;;;;;;19.10;12.68;;;10.80;93.20;;;;;;4999300;28;20026;-84
2021/07/10 04:14:31;;;;;;;16.42;12.60;;;10.80;93.00;;;;;;4998453;28;20358;-85
2021/07/10 04:16:57;;;;;;;18.00;12.77;;;10.90;93.10;;;;;;5014696;28;20064;-84
2021/07/10 04:19:22;;;;;;;14.68;10.90;;;10.90;93.10;;;;;;5016214;28;20049;-84
2021/07/10 04:21:48;;;;;;;16.15;11.07;;;11.00;93.00;;;;;;4998170;28;20443;-84
2021/07/10 04:24:13;;;;;;;17.05;11.32;;;11.00;93.20;;;;;;5015972;28;20030;-84
2021/07/10 04:26:39;;;;;;;17.00;10.98;;;10.90;92.90;;;;;;5015891;28;20411;-84
2021/07/10 04:29:05;;;;;;;16.35;12.05;;;11.00;92.80;;;;;;4998465;28;20723;-84
2021/07/10 04:31:30;;;;;;;15.23;11.32;;;11.00;93.10;;;;;;4996484;28;20030;-84
2021/07/10 04:33:56;;;;;;;16.73;11.43;;;11.00;92.60;;;;;;5015753;28;20387;-83
2021/07/10 04:36:22;;;;;;;15.95;12.60;;;11.00;93.10;;;;;;5015837;28;20076;-83
2021/07/10 04:38:47;;;;;;;24.98;11.98;;;10.90;93.10;;;;;;5015765;28;20025;-84
2021/07/10 04:41:13;;;;;;;18.65;10.75;;;10.90;92.90;;;;;;5014857;28;20030;-83
2021/07/10 04:43:39;;;;;;;19.50;12.90;;;11.00;92.30;;;;;;5015779;28;20101;-84
2021/07/10 04:46:04;;;;;;;14.90;11.50;;;11.10;92.50;;;;;;5014695;28;20023;-84
2021/07/10 04:48:30;;;;;;;14.48;11.73;;;11.10;92.70;;;;;;5015386;28;20054;-83
2021/07/10 04:50:56;;;;;;;13.55;10.63;;;11.10;92.30;;;;;;5015593;28;20018;-84
2021/07/10 04:53:22;;;;;;;18.13;11.00;;;11.20;92.50;;;;;;5014948;28;20029;-84
2021/07/10 04:55:48;;;;;;;15.88;10.55;;;11.20;92.50;;;;;;5015413;28;20026;-83
2021/07/10 04:58:14;;;;;;;15.93;12.27;;;11.30;92.40;;;;;;4997584;28;20056;-84
2021/07/10 05:00:39;;;;;;;17.13;11.20;;;11.30;92.40;;;;;;4997214;28;20029;-83
2021/07/10 05:03:05;;;;;;;16.20;11.57;;;11.40;92.20;;;;;;4997388;28;20515;-83
2021/07/10 05:05:31;;;;;;;16.90;12.63;;;11.40;92.50;;;;;;5015416;28;20375;-84
2021/07/10 05:07:57;;;;;;;17.80;11.40;;;11.50;92.20;;;;;;4998811;28;20030;-84
2021/07/10 05:10:22;;;;;;;24.02;12.43;;;11.60;92.10;;;;;;5019047;28;20026;-84
2021/07/10 05:12:48;;;;;;;16.52;11.93;;;11.70;91.90;;;;;;5017744;28;20355;-84
2021/07/10 05:15:16;;;;;;;15.25;11.73;;;11.80;91.90;;;;;;5009302;28;20026;-84
2021/07/10 05:17:42;;;;;;;16.45;12.18;;;12.00;91.50;;;;;;5018703;28;20434;-83
2021/07/10 05:20:09;;;;;;;19.15;12.93;;;12.10;91.70;;;;;;5019331;28;20032;-84
2021/07/10 05:22:34;;;;;;;20.23;13.70;;;12.20;92.00;;;;;;5018528;28;20045;-84
2021/07/10 05:25:00;;;;;;;16.80;12.75;;;12.30;92.00;;;;;;5019305;28;20076;-84
2021/07/10 05:27:26;;;;;;;15.82;12.63;;;12.40;91.90;;;;;;5018761;28;20080;-83
2021/07/10 05:29:51;;;;;;;14.48;10.43;;;12.50;91.80;;;;;;5017412;28;20030;-84
2021/07/10 05:32:18;;;;;;;16.27;12.00;;;12.60;91.40;;;;;;5013954;28;20038;-84
2021/07/10 05:34:44;;;;;;;15.35;12.02;;;12.70;92.00;;;;;;5018577;28;20032;-84
2021/07/10 05:37:09;;;;;;;16.25;11.73;;;12.70;92.20;;;;;;5018084;28;20021;-84
2021/07/10 05:39:35;;;;;;;15.55;12.32;;;12.80;92.00;;;;;;5001420;28;20114;-84
2021/07/10 05:42:01;;;;;;;17.88;12.52;;;12.90;92.00;;;;;;5001162;28;20026;-84
2021/07/10 05:44:26;;;;;;;17.50;13.30;;;13.00;92.20;;;;;;5018186;28;20129;-84
2021/07/10 05:46:52;;;;;;;15.68;12.20;;;13.10;92.40;;;;;;5016939;28;20315;-84
2021/07/10 05:49:18;;;;;;;17.63;12.52;;;13.20;92.20;;;;;;5000153;28;20029;-84
2021/07/10 05:51:44;;;;;;;16.85;12.30;;;13.40;92.80;;;;;;5018250;28;20427;-84
2021/07/10 05:54:10;;;;;;;16.50;13.00;;;13.50;93.20;;;;;;5017531;28;20311;-84
2021/07/10 05:56:36;;;;;;;17.83;12.93;;;13.60;93.60;;;;;;5018299;28;20053;-84
2021/07/10 05:59:01;;;;;;;16.40;12.82;;;13.70;94.50;;;;;;5018939;28;20026;-84
2021/07/10 06:01:30;;;;;;;14.75;11.07;;;13.70;95.50;;;;;;5017997;28;20034;-84
2021/07/10 06:03:55;;;;;;;15.95;12.40;;;13.70;95.90;;;;;;5018640;28;20033;-84
2021/07/10 06:06:21;;;;;;;14.85;11.52;;;13.70;96.80;;;;;;5018203;28;20029;-84
2021/07/10 06:08:47;;;;;;;14.60;11.38;;;13.80;97.40;;;;;;5018779;28;20026;-84
2021/07/10 06:11:12;;;;;;;19.48;12.25;;;13.80;97.00;;;;;;5018225;28;20092;-84
2021/07/10 06:13:38;;;;;;;15.55;11.90;;;13.90;97.80;;;;;;5017832;28;20030;-84
2021/07/10 06:16:04;;;;;;;14.20;11.25;;;14.00;97.60;;;;;;5000414;28;20053;-84
2021/07/10 06:18:30;;;;;;;15.63;11.27;;;14.20;98.00;;;;;;5017406;28;20030;-85
2021/07/10 06:20:55;;;;;;;15.88;10.20;;;14.30;98.00;;;;;;5000453;28;20041;-84
2021/07/10 06:23:21;;;;;;;13.85;9.57;;;14.50;98.00;;;;;;5017154;28;20029;-84
2021/07/10 06:25:47;;;;;;;12.63;9.82;;;14.60;98.00;;;;;;5018234;28;20076;-84
2021/07/10 06:28:13;;;;;;;12.15;9.43;;;14.60;98.00;;;;;;5017906;28;20030;-84
2021/07/10 06:30:39;;;;;;;13.20;9.40;;;14.70;98.00;;;;;;5017263;28;20034;-83
2021/07/10 06:33:05;;;;;;;12.48;9.25;;;14.90;98.00;;;;;;5000241;28;20076;-83
2021/07/10 06:35:31;;;;;;;13.60;10.60;;;15.00;98.00;;;;;;5000684;28;20064;-83
2021/07/10 06:37:59;;;;;;;14.88;9.85;;;15.20;98.00;;;;;;5000920;28;20022;-84
2021/07/10 06:40:25;;;;;;;15.18;10.55;;;15.40;98.00;;;;;;5017263;28;20022;-86
2021/07/10 06:42:51;;;;;;;14.40;10.30;;;15.40;98.00;;;;;;5000285;28;20406;-87
2021/07/10 06:45:18;;;;;;;13.52;9.18;;;15.60;98.00;;;;;;5016331;28;20103;-86
2021/07/10 06:47:45;;;;;;;14.68;9.65;;;15.70;98.00;;;;;;5016847;28;20037;-86
2021/07/10 06:50:14;;;;;;;15.20;10.27;;;15.80;98.00;;;;;;5017501;28;20018;-85
2021/07/10 06:52:40;;;;;;;12.30;9.52;;;15.80;98.00;;;;;;5000419;28;20034;-86
2021/07/10 06:55:09;;;;;;;15.82;10.10;;;15.90;98.00;;;;;;5017731;28;20030;-86
2021/07/10 06:57:35;;;;;;;12.65;9.73;;;15.80;98.00;;;;;;5018095;28;20033;-86
2021/07/10 07:00:01;;;;;;;13.10;9.68;;;16.10;98.00;;;;;;5015282;28;20326;-86
2021/07/10 07:02:27;;;;;;;12.68;9.82;;;16.30;98.00;;;;;;5017426;28;20495;-86
2021/07/10 07:04:52;;;;;;;10.95;8.48;;;16.40;98.00;;;;;;5017584;28;20026;-87
2021/07/10 07:07:18;;;;;;;12.93;9.35;;;16.40;98.00;;;;;;5017052;28;20034;-86
2021/07/10 07:09:44;;;;;;;14.55;8.38;;;16.60;98.00;;;;;;5017392;28;20092;-86
2021/07/10 07:12:10;;;;;;;11.80;9.25;;;16.70;98.00;;;;;;5017261;28;20407;-86
2021/07/10 07:14:35;;;;;;;16.95;9.60;;;16.80;98.00;;;;;;5017394;28;20327;-85
2021/07/10 07:17:03;;;;;;;12.45;8.85;;;16.80;97.90;;;;;;5016263;28;20450;-86
2021/07/10 07:19:32;;;;;;;14.63;8.93;;;17.00;98.00;;;;;;5016857;28;20010;-87
2021/07/10 07:21:58;;;;;;;12.45;8.30;;;17.10;98.00;;;;;;4996502;28;20395;-86
2021/07/10 07:24:24;;;;;;;13.50;9.18;;;17.20;97.80;;;;;;4997500;28;20096;-87
2021/07/10 07:26:53;;;;;;;14.85;9.25;;;17.40;97.80;;;;;;4996627;28;20449;-86
2021/07/10 07:29:19;;;;;;;12.75;8.90;;;17.60;97.70;;;;;;4997535;28;20419;-86
2021/07/10 07:31:45;;;;;;;9.45;6.22;;;17.90;97.50;;;;;;4993559;28;20034;-87
2021/07/10 07:34:11;;;;;;;9.25;5.90;;;18.80;96.80;;;;;;4995804;28;20434;-86
2021/07/10 07:36:37;;;;;;;8.00;5.25;;;20.10;94.50;;;;;;4995746;28;20165;-87
2021/07/10 07:39:06;;;;;;;7.72;5.03;;;21.40;92.10;;;;;;4995977;28;20049;-87
2021/07/10 07:41:32;;;;;;;8.10;4.80;;;22.20;89.10;;;;;;4993000;28;20022;-87
2021/07/10 07:43:58;;;;;;;7.60;4.75;;;23.00;86.20;;;;;;4995972;28;20152;-87
2021/07/10 07:46:24;;;;;;;8.23;4.50;;;23.60;84.70;;;;;;4995039;28;20069;-87
2021/07/10 07:48:49;;;;;;;9.07;4.75;;;24.10;82.60;;;;;;4997104;28;20030;-87
2021/07/10 07:51:16;;;;;;;7.40;4.90;;;24.20;82.10;;;;;;4996901;28;20033;-86
2021/07/10 07:53:47;;;;;;;8.63;4.80;;;24.30;82.30;;;;;;4997157;28;20026;-86
2021/07/10 07:56:14;;;;;;;8.82;5.38;;;24.00;82.00;;;;;;4996946;28;20109;-87
2021/07/10 07:58:40;;;;;;;7.47;5.13;;;23.60;83.80;;;;;;4996275;28;20030;-87
2021/07/10 08:01:06;;;;;;;9.32;4.90;;;24.00;83.60;;;;;;4995146;28;20025;-87
2021/07/10 08:03:35;;;;;;;6.85;4.28;;;23.90;83.20;;;;;;4996209;28;20038;-88
2021/07/10 08:06:02;;;;;;;7.80;4.80;;;24.60;81.40;;;;;;4995936;28;20086;-87
2021/07/10 08:08:28;;;;;;;6.75;4.40;;;25.40;79.80;;;;;;4995342;28;20034;-88
2021/07/10 08:10:54;;;;;;;6.65;4.68;;;25.70;78.50;;;;;;4995585;28;20327;-87
2021/07/10 08:13:20;;;;;;;6.13;4.13;;;26.00;78.30;;;;;;4996550;28;20037;-87
2021/07/10 08:15:46;;;;;;;7.28;4.13;;;26.50;76.50;;;;;;4995856;28;20057;-87
2021/07/10 08:18:11;;;;;;;7.72;4.93;;;26.80;75.90;;;;;;4995625;28;20026;-87
2021/07/10 08:20:37;;;;;;;6.60;4.75;;;26.50;76.40;;;;;;4997143;28;20479;-88
2021/07/10 08:23:04;;;;;;;6.28;4.03;;;26.20;76.80;;;;;;5016303;28;20025;-87
2021/07/10 08:25:30;;;;;;;6.22;4.22;;;25.80;78.30;;;;;;4999304;28;20076;-87
2021/07/10 08:27:56;;;;;;;6.10;4.50;;;26.20;77.30;;;;;;5016149;28;20040;-87
2021/07/10 08:30:22;;;;;;;7.30;5.25;;;26.20;76.90;;;;;;5014532;28;20536;-87
2021/07/10 08:32:48;;;;;;;6.75;4.45;;;25.80;78.10;;;;;;5015673;28;20084;-87
2021/07/10 08:35:16;;;;;;;6.75;4.85;;;25.80;77.70;;;;;;5015920;28;20116;-87
2021/07/10 08:37:42;;;;;;;8.55;4.55;;;25.30;78.60;;;;;;5012772;28;20025;-87
2021/07/10 08:40:09;;;;;;;7.47;4.93;;;24.70;80.50;;;;;;5015834;28;20109;-87
2021/07/10 08:42:35;;;;;;;7.82;4.53;;;24.70;80.50;;;;;;4998327;28;20141;-88
2021/07/10 08:45:05;;;;;;;9.13;4.82;;;24.90;80.90;;;;;;4997511;28;20358;-87
2021/07/10 08:47:35;;;;;;;7.95;5.60;;;25.00;80.50;;;;;;5015778;28;20026;-87
2021/07/10 08:50:02;;;;;;;7.20;4.78;;;24.70;80.50;;;;;;5015767;28;20030;-85
2021/07/10 08:52:28;;;;;;;11.82;5.95;;;24.10;81.90;;;;;;4998166;28;20099;-86
2021/07/10 08:54:54;;;;;;;9.85;6.00;;;23.40;84.00;;;;;;5016096;28;20101;-86
2021/07/10 08:57:20;;;;;;;7.90;5.55;;;22.70;85.30;;;;;;5015510;28;20168;-87
2021/07/10 08:59:46;;;;;;;10.57;5.60;;;22.70;85.80;;;;;;5014762;28;20022;-85
2021/07/10 09:02:12;;;;;;;8.05;4.97;;;22.60;86.00;;;;;;5015764;28;20045;-87
2021/07/10 09:04:39;;;;;;;8.85;4.97;;;22.60;87.30;;;;;;5015775;28;20034;-86
2021/07/10 09:07:05;;;;;;;7.10;4.60;;;23.90;83.00;;;;;;5015246;28;20049;-87
2021/07/10 09:09:42;;;;;;;8.68;4.82;;;25.20;79.70;;;;;;4997740;28;20033;-86
2021/07/10 09:12:08;;;;;;;7.40;4.80;;;25.90;77.10;;;;;;4998543;28;20052;-87
2021/07/10 09:14:34;;;;;;;7.60;4.68;;;26.50;76.00;;;;;;4998296;28;20033;-87
2021/07/10 09:17:20;;;;;;;7.40;4.70;;;26.50;74.40;;;;;;4996966;28;20065;-86
2021/07/10 09:19:47;;;;;;;6.00;4.10;;;25.80;75.10;;;;;;5015725;28;20421;-88
2021/07/10 09:22:28;;;;;;;6.68;4.15;;;26.20;76.30;;;;;;4995140;28;20094;-86
2021/07/10 09:24:56;;;;;;;7.68;4.13;;;27.20;73.70;;;;;;4994744;28;20034;-86
2021/07/10 09:27:24;;;;;;;6.18;4.00;;;27.50;72.70;;;;;;4994787;28;20612;-86
2021/07/10 09:29:52;;;;;;;6.95;4.10;;;26.80;72.80;;;;;;4994085;28;20315;-85
2021/07/10 09:32:24;;;;;;;5.97;4.00;;;25.90;75.10;;;;;;4994872;28;20046;-85
2021/07/10 09:34:57;;;;;;;7.85;4.78;;;25.40;76.00;;;;;;4994680;28;20040;-87
2021/07/10 09:37:32;;;;;;;7.28;4.00;;;25.30;77.60;;;;;;4995741;28;20037;-88
2021/07/10 09:40:12;;;;;;;12.88;4.38;;;26.20;74.90;;;;;;4994406;28;20562;-86
2021/07/10 09:42:41;;;;;;;6.07;4.10;;;26.20;74.40;;;;;;4995000;28;20111;-86
2021/07/10 09:45:22;;;;;;;6.35;4.88;;;25.00;76.00;;;;;;4993463;28;20034;-86
2021/07/10 09:47:49;;;;;;;6.40;4.60;;;24.10;78.70;;;;;;4995784;28;20034;-85
2021/07/10 09:50:21;;;;;;;6.57;4.00;;;23.30;82.10;;;;;;4995014;28;20297;-85
2021/07/10 09:52:49;;;;;;;6.50;4.18;;;23.10;82.00;;;;;;4994033;28;20061;-86
2021/07/10 09:55:17;;;;;;;5.80;3.20;;;23.20;81.90;;;;;;5013066;28;20335;-87
2021/07/10 09:57:44;;;;;;;5.13;3.00;;;24.50;80.30;;;;;;4997751;28;20088;-87
2021/07/10 10:00:20;;;;;;;6.20;3.35;;;26.60;71.10;;;;;;4995195;28;20028;-87
2021/07/10 10:02:52;;;;;;;5.25;3.15;;;28.00;68.60;;;;;;5013929;28;20118;-86
2021/07/10 10:05:21;;;;;;;5.70;3.55;;;28.80;66.90;;;;;;4999503;28;20416;-87
2021/07/10 10:08:02;;;;;;;7.30;3.40;;;29.30;68.40;;;;;;4996837;28;20030;-87
2021/07/10 10:10:41;;;;;;;5.82;3.28;;;28.30;67.10;;;;;;4997760;28;20293;-86
2021/07/10 10:13:09;;;;;;;7.28;3.67;;;27.20;72.40;;;;;;4997343;28;20034;-86
2021/07/10 10:15:40;;;;;;;4.88;3.17;;;28.00;70.10;;;;;;4998002;28;20102;-86
2021/07/10 10:18:06;;;;;;;5.60;3.60;;;27.90;69.10;;;;;;4997720;28;20034;-86
2021/07/10 10:20:36;;;;;;;6.05;2.92;;;27.90;69.90;;;;;;4997835;28;20093;-86
2021/07/10 10:23:05;;;;;;;3.65;1.98;;;28.70;69.60;;;;;;5000775;28;20049;-86
2021/07/10 10:25:33;;;;;;;7.85;2.10;;;30.10;61.60;;;;;;5000364;28;20072;-87
2021/07/10 10:28:08;;;;;;;4.63;2.05;;;30.80;59.10;;;;;;5018116;28;20093;-86
2021/07/10 10:30:34;;;;;;;4.93;1.92;;;30.60;60.10;;;;;;4998298;28;20446;-84
2021/07/10 10:33:13;;;;;;;2.88;1.63;;;30.50;61.30;;;;;;4999382;28;20030;-85
2021/07/10 10:35:39;;;;;;;3.83;2.05;;;30.80;62.60;;;;;;5017091;28;20029;-86
2021/07/10 10:38:06;;;;;;;3.22;1.73;;;31.00;59.10;;;;;;4997988;28;20033;-86
2021/07/10 10:40:33;;;;;;;4.15;1.90;;;31.30;58.40;;;;;;5017093;28;20014;-86
2021/07/10 10:43:02;;;;;;;3.10;1.60;;;30.20;59.00;;;;;;5000081;28;20056;-86
2021/07/10 10:45:30;;;;;;;3.78;1.85;;;30.90;60.10;;;;;;4997622;28;20033;-86
2021/07/10 10:47:55;;;;;;;3.28;1.75;;;31.30;56.60;;;;;;5017147;28;20245;-86
2021/07/10 10:50:36;;;;;;;3.85;1.80;;;31.10;59.60;;;;;;5017498;28;20057;-87
2021/07/10 10:53:07;;;;;;;4.38;1.65;;;31.10;55.30;;;;;;4999657;28;20041;-87
2021/07/10 10:55:35;;;;;;;3.85;2.15;;;31.30;56.00;;;;;;4998627;28;20457;-85
2021/07/10 10:58:38;;;;;;;3.67;2.00;;;30.90;57.30;;;;;;4999519;28;20045;-88
2021/07/10 11:01:07;;;;;;;4.93;2.00;;;30.80;56.40;;;;;;4990690;28;20040;-86
2021/07/10 11:03:42;;;;;;;4.30;1.77;;;31.60;58.40;;;;;;5017007;28;20128;-86
2021/07/10 11:06:30;;;;;;;3.80;1.80;;;31.70;56.00;;;;;;4999654;28;20108;-86
2021/07/10 11:08:58;;;;;;;3.42;1.95;;;30.50;55.30;;;;;;5014830;28;20122;-86
2021/07/10 11:11:27;;;;;;;3.90;2.10;;;29.00;62.00;;;;;;5001137;28;20033;-87
2021/07/10 11:13:59;;;;;;;3.67;1.98;;;29.00;62.50;;;;;;4998638;28;20125;-86
2021/07/10 11:16:28;;;;;;;3.22;1.80;;;30.30;59.20;;;;;;4998113;28;20109;-86
2021/07/10 11:19:01;;;;;;;4.07;2.30;;;30.90;57.40;;;;;;4999298;28;20075;-86
2021/07/10 11:21:38;;;;;;;4.30;2.03;;;30.00;59.40;;;;;;4998521;28;20045;-86
2021/07/10 11:24:19;;;;;;;6.40;2.38;;;29.10;59.20;;;;;;5017377;28;20057;-86
2021/07/10 11:26:54;;;;;;;4.80;2.08;;;28.60;63.30;;;;;;5002879;28;20053;-86
2021/07/10 11:29:28;;;;;;;3.80;2.15;;;29.20;63.60;;;;;;5018898;28;20032;-86
2021/07/10 11:32:14;;;;;;;4.28;1.90;;;29.60;62.20;;;;;;4997193;28;20057;-86
2021/07/10 11:34:59;;;;;;;3.15;1.83;;;30.30;57.30;;;;;;5021899;28;20036;-86
2021/07/10 11:37:31;;;;;;;3.67;1.73;;;30.60;59.20;;;;;;5002005;28;20072;-84
2021/07/10 11:39:59;;;;;;;3.67;2.00;;;29.50;56.60;;;;;;4996911;28;20026;-85
2021/07/10 11:42:29;;;;;;;3.85;2.05;;;27.80;59.90;;;;;;5015506;28;20029;-86
2021/07/10 11:45:04;;;;;;;3.95;2.13;;;26.90;62.40;;;;;;4999701;28;20121;-88
2021/07/10 11:47:40;;;;;;;6.05;2.22;;;26.50;62.00;;;;;;5002918;28;20319;-85
2021/07/10 11:50:20;;;;;;;3.63;1.77;;;26.80;62.80;;;;;;5016630;28;20041;-85
2021/07/10 11:53:07;;;;;;;4.55;2.35;;;27.70;60.70;;;;;;5026100;28;20308;-86
2021/07/10 11:55:44;;;;;;;3.92;1.88;;;28.50;62.30;;;;;;4996677;28;20045;-87
2021/07/10 11:58:15;;;;;;;3.88;1.95;;;28.30;58.70;;;;;;4999409;28;20072;-87
2021/07/10 12:00:41;;;;;;;3.60;1.60;;;28.30;60.10;;;;;;5006557;28;20025;-87
2021/07/10 12:03:22;;;;;;;6.32;1.83;;;28.70;62.90;;;;;;5015850;28;20052;-86
2021/07/10 12:05:51;;;;;;;6.35;3.28;;;28.50;58.20;;;;;;5014683;28;20029;-86
2021/07/10 12:08:18;;;;;;;3.05;1.70;;;28.50;59.20;;;;;;5014377;28;20108;-86
2021/07/10 12:10:47;;;;;;;3.42;1.63;;;28.50;60.50;;;;;;5018792;28;20025;-87
2021/07/10 12:13:19;;;;;;;3.78;1.73;;;28.30;61.90;;;;;;5031869;28;20033;-86
2021/07/10 12:16:00;;;;;;;5.05;1.80;;;28.80;60.30;;;;;;5012394;28;20057;-87
2021/07/10 12:18:32;;;;;;;3.25;1.70;;;29.10;59.60;;;;;;5018599;28;20414;-85
2021/07/10 12:21:19;;;;;;;3.40;1.70;;;29.80;58.40;;;;;;5008802;28;20447;-85
2021/07/10 12:23:49;;;;;;;5.88;1.92;;;30.20;57.10;;;;;;5004358;28;20439;-85
2021/07/10 12:26:20;;;;;;;5.28;1.33;;;29.90;57.90;;;;;;5001433;28;20022;-84
2021/07/10 12:28:56;;;;;;;3.33;1.80;;;29.70;58.20;;;;;;5011648;28;20364;-87
2021/07/10 12:31:36;;;;;;;2.60;1.33;;;30.00;56.10;;;;;;5000165;28;20022;-86
2021/07/10 12:34:13;;;;;;;7.88;1.50;;;30.10;56.90;;;;;;4994335;28;20018;-86
2021/07/10 12:36:44;;;;;;;3.58;1.55;;;29.70;57.40;;;;;;4998942;28;20314;-87
2021/07/10 12:39:27;;;;;;;3.08;1.60;;;29.30;60.10;;;;;;4996620;28;20097;-87
2021/07/10 12:42:20;;;;;;;3.25;1.40;;;29.80;57.20;;;;;;5009012;28;20339;-87